Time;durP1;ratioP1;P1;durP2;ratioP2;P2;SDS_P1;SDS_P2;PMS_P1;PMS_P2;Temp;Humidity;BMP_temperature;BMP_pressure;BME280_temperature;BME280_humidity;BME280_pressure;Samples;Min_cycle;Max_cycle;Signal;HPM_P1;HPM_P2
2021/12/28 00:00:31;;;;;;;36.42;24.33;;;5.20;99.90;;;;;;5094899;28;20096;-89
2021/12/28 00:02:57;;;;;;;34.38;24.05;;;4.80;99.90;;;;;;5094325;28;20051;-89
2021/12/28 00:05:24;;;;;;;36.95;23.90;;;4.80;99.90;;;;;;5094847;28;20063;-90
2021/12/28 00:07:49;;;;;;;35.25;22.92;;;4.70;99.90;;;;;;5096778;28;20056;-86
2021/12/28 00:10:16;;;;;;;37.53;24.60;;;4.80;99.90;;;;;;5113610;28;20052;-88
2021/12/28 00:12:42;;;;;;;39.90;25.52;;;4.80;99.90;;;;;;5094417;28;20043;-89
2021/12/28 00:17:59;;;;;;;43.38;26.30;;;5.00;99.90;;;;;;5081454;28;20134;-84
2021/12/28 00:20:28;;;;;;;45.60;26.30;;;4.90;99.90;;;;;;5095175;28;20051;-87
2021/12/28 00:22:53;;;;;;;43.10;25.80;;;4.90;99.90;;;;;;5111902;28;20092;-88
2021/12/28 00:25:19;;;;;;;44.83;27.70;;;4.90;99.90;;;;;;5111409;28;20155;-88
2021/12/28 00:27:45;;;;;;;46.28;27.92;;;4.90;99.90;;;;;;5111673;28;20043;-88
2021/12/28 00:30:11;;;;;;;48.78;28.33;;;5.20;99.90;;;;;;5094021;28;20052;-88
2021/12/28 00:32:36;;;;;;;47.00;28.08;;;4.90;99.90;;;;;;5094355;28;20403;-87
2021/12/28 00:35:03;;;;;;;52.75;30.15;;;5.30;99.90;;;;;;5110879;28;20048;-89
2021/12/28 00:37:29;;;;;;;57.85;30.73;;;5.00;99.90;;;;;;5111303;28;20097;-88
2021/12/28 00:39:55;;;;;;;58.22;33.13;;;5.00;99.90;;;;;;5076574;28;20826;-85
2021/12/28 00:42:20;;;;;;;58.45;33.47;;;5.10;99.90;;;;;;5111099;28;20055;-89
2021/12/28 00:44:46;;;;;;;59.45;32.83;;;5.10;99.90;;;;;;5111073;28;20048;-87
2021/12/28 00:47:12;;;;;;;55.88;31.42;;;5.00;99.90;;;;;;5093277;28;20372;-88
2021/12/28 00:49:37;;;;;;;63.28;34.38;;;5.00;99.90;;;;;;5110780;28;20055;-88
2021/12/28 00:52:03;;;;;;;62.03;34.15;;;5.20;99.90;;;;;;5093305;28;20044;-88
2021/12/28 00:54:29;;;;;;;63.30;34.05;;;4.90;99.90;;;;;;5127482;27;20051;-88
2021/12/28 00:56:54;;;;;;;65.72;34.33;;;4.90;99.90;;;;;;5110735;28;20059;-87
2021/12/28 00:59:20;;;;;;;64.13;34.83;;;5.00;99.90;;;;;;5110258;28;20051;-90
2021/12/28 01:01:47;;;;;;;69.10;35.78;;;4.90;99.90;;;;;;5110667;28;20047;-90
2021/12/28 01:04:13;;;;;;;65.55;35.70;;;4.90;99.90;;;;;;5093492;28;20070;-89
2021/12/28 01:06:39;;;;;;;73.57;35.95;;;4.90;99.90;;;;;;5110548;28;20391;-90
2021/12/28 01:09:04;;;;;;;73.75;37.28;;;5.00;99.90;;;;;;5092206;28;20050;-89
2021/12/28 01:11:30;;;;;;;73.68;37.70;;;5.00;99.90;;;;;;5110282;28;20051;-88
2021/12/28 01:13:56;;;;;;;71.90;38.45;;;4.90;99.90;;;;;;5111537;28;20046;-88
2021/12/28 01:16:21;;;;;;;80.00;38.85;;;4.80;99.90;;;;;;5109853;28;20441;-87
2021/12/28 01:18:47;;;;;;;85.43;39.17;;;4.70;99.90;;;;;;5110397;28;20389;-87
2021/12/28 01:21:13;;;;;;;80.85;39.08;;;5.20;99.90;;;;;;5092852;28;20039;-87
2021/12/28 01:23:38;;;;;;;85.75;39.33;;;5.00;99.90;;;;;;5111444;28;20055;-89
2021/12/28 01:26:04;;;;;;;95.10;42.63;;;4.90;99.90;;;;;;5109748;28;20460;-88
2021/12/28 01:28:30;;;;;;;92.13;42.90;;;4.90;99.90;;;;;;5109910;28;20043;-89
2021/12/28 01:30:55;;;;;;;111.10;44.22;;;4.90;99.90;;;;;;5127386;28;20036;-89
2021/12/28 01:33:21;;;;;;;104.07;45.28;;;5.00;99.90;;;;;;5109637;28;20096;-88
2021/12/28 01:35:47;;;;;;;118.20;46.95;;;5.10;99.90;;;;;;5093319;28;20047;-88
2021/12/28 01:38:12;;;;;;;144.77;50.45;;;5.20;99.90;;;;;;5109956;28;20055;-87
2021/12/28 01:40:40;;;;;;;142.98;52.00;;;5.40;99.90;;;;;;5110416;28;20048;-88
2021/12/28 01:43:12;;;;;;;161.13;52.35;;;5.10;99.90;;;;;;5093050;28;20051;-87
2021/12/28 01:45:48;;;;;;;166.35;54.65;;;5.10;99.90;;;;;;5093938;28;20052;-87
2021/12/28 01:48:17;;;;;;;176.13;54.80;;;5.10;99.90;;;;;;5093230;28;20059;-87
2021/12/28 01:50:42;;;;;;;172.57;55.67;;;5.30;99.90;;;;;;5093778;28;20055;-88
2021/12/28 01:53:08;;;;;;;178.20;59.10;;;5.30;99.90;;;;;;5075610;28;20039;-88
2021/12/28 01:55:35;;;;;;;200.63;58.17;;;5.40;99.90;;;;;;5093098;28;20456;-88
2021/12/28 01:58:01;;;;;;;219.13;61.85;;;5.50;99.90;;;;;;5076735;28;20052;-88
2021/12/28 02:00:27;;;;;;;234.55;64.20;;;5.50;99.90;;;;;;5092867;28;20044;-88
2021/12/28 02:02:52;;;;;;;198.73;62.17;;;6.20;99.90;;;;;;5093113;28;20513;-87
2021/12/28 02:05:18;;;;;;;225.07;64.90;;;6.00;99.90;;;;;;5109590;28;20048;-85
2021/12/28 02:07:44;;;;;;;259.98;67.00;;;5.60;99.90;;;;;;5110098;28;20117;-86
2021/12/28 02:10:09;;;;;;;293.08;66.95;;;5.60;99.90;;;;;;5110514;28;20039;-86
2021/12/28 02:12:35;;;;;;;324.75;72.18;;;5.60;99.90;;;;;;5093021;28;20047;-87
2021/12/28 02:15:06;;;;;;;265.60;66.70;;;5.60;99.90;;;;;;5093052;28;20130;-87
2021/12/28 02:17:33;;;;;;;249.35;63.85;;;5.70;99.90;;;;;;5109475;28;20052;-87
2021/12/28 02:20:13;;;;;;;383.90;72.70;;;5.80;99.90;;;;;;5109894;28;20071;-87
2021/12/28 02:22:39;;;;;;;425.20;76.00;;;5.70;99.90;;;;;;5096995;28;20193;-87
2021/12/28 02:25:05;;;;;;;446.17;75.78;;;5.60;99.90;;;;;;5096573;28;20130;-88
2021/12/28 02:27:31;;;;;;;214.77;59.53;;;5.60;99.90;;;;;;5130021;27;20139;-88
2021/12/28 02:29:57;;;;;;;354.00;70.43;;;5.60;99.90;;;;;;5113586;28;20107;-88
2021/12/28 02:32:29;;;;;;;265.25;64.53;;;5.50;99.90;;;;;;5112770;28;20131;-88
2021/12/28 02:34:55;;;;;;;416.90;72.55;;;5.40;99.90;;;;;;5113267;27;20055;-88
2021/12/28 02:37:21;;;;;;;399.30;72.47;;;6.10;99.90;;;;;;5095912;28;20048;-88
2021/12/28 02:39:46;;;;;;;295.85;66.55;;;5.40;99.90;;;;;;5112921;28;20557;-88
2021/12/28 02:42:14;;;;;;;374.85;71.28;;;6.30;99.90;;;;;;5112715;28;20380;-85
2021/12/28 02:44:40;;;;;;;501.40;74.28;;;5.50;99.90;;;;;;5113262;28;20484;-87
2021/12/28 02:47:05;;;;;;;412.00;72.70;;;5.40;99.90;;;;;;5113347;28;20053;-87
2021/12/28 02:49:31;;;;;;;371.38;72.18;;;5.50;99.90;;;;;;5112710;28;20604;-88
2021/12/28 02:51:57;;;;;;;674.58;86.07;;;5.50;99.90;;;;;;5113122;28;20142;-88
2021/12/28 02:54:22;;;;;;;772.80;91.35;;;5.60;99.90;;;;;;5112409;28;20039;-88
2021/12/28 02:56:48;;;;;;;410.50;75.07;;;5.60;99.90;;;;;;5113033;28;20035;-89
2021/12/28 02:59:13;;;;;;;661.45;88.22;;;5.60;99.90;;;;;;5112919;28;20049;-84
2021/12/28 03:01:40;;;;;;;462.40;77.15;;;5.60;99.90;;;;;;5112427;28;20127;-88
2021/12/28 03:04:08;;;;;;;550.70;83.55;;;5.70;99.90;;;;;;5078921;28;20124;-87
2021/12/28 03:06:34;;;;;;;540.67;84.72;;;5.70;99.90;;;;;;5095459;28;20060;-88
2021/12/28 03:09:00;;;;;;;468.17;80.50;;;6.00;99.90;;;;;;5096424;27;20048;-88
2021/12/28 03:11:27;;;;;;;298.92;67.97;;;5.80;99.90;;;;;;5095603;28;20052;-88
2021/12/28 03:13:55;;;;;;;322.88;71.07;;;5.80;99.90;;;;;;5078614;28;20486;-88
2021/12/28 03:16:21;;;;;;;404.10;77.65;;;5.90;99.90;;;;;;5095237;28;20733;-87
2021/12/28 03:18:47;;;;;;;275.00;67.68;;;5.90;99.90;;;;;;5113912;28;20056;-88
2021/12/28 03:21:14;;;;;;;345.15;72.85;;;5.90;99.90;;;;;;5112407;28;20056;-88
2021/12/28 03:23:40;;;;;;;314.73;70.47;;;5.90;99.90;;;;;;5095090;28;20063;-89
2021/12/28 03:26:05;;;;;;;304.25;69.00;;;6.30;99.90;;;;;;5112180;28;20055;-88
2021/12/28 03:28:33;;;;;;;313.58;70.25;;;6.10;99.90;;;;;;5078010;28;20047;-85
2021/12/28 03:31:00;;;;;;;266.90;67.32;;;6.10;99.90;;;;;;5078807;28;20082;-86
2021/12/28 03:33:27;;;;;;;392.27;77.70;;;6.20;99.90;;;;;;5094082;28;20176;-86
2021/12/28 03:35:53;;;;;;;325.58;70.50;;;6.20;99.90;;;;;;5095348;28;20391;-89
2021/12/28 03:38:19;;;;;;;365.40;73.35;;;6.20;99.90;;;;;;5095090;28;20043;-89
2021/12/28 03:40:45;;;;;;;299.60;67.22;;;6.20;99.90;;;;;;5094435;28;20055;-89
2021/12/28 03:43:10;;;;;;;338.42;70.93;;;6.20;99.90;;;;;;5095042;28;20169;-89
2021/12/28 03:45:36;;;;;;;338.55;72.75;;;6.30;99.90;;;;;;5111529;28;20134;-88
2021/12/28 03:48:04;;;;;;;364.17;74.18;;;6.20;99.90;;;;;;5112110;28;20095;-88
2021/12/28 03:50:30;;;;;;;345.50;72.65;;;6.20;99.90;;;;;;5111129;28;20099;-89
2021/12/28 03:52:55;;;;;;;307.13;69.15;;;6.30;99.90;;;;;;5094762;28;20169;-89
2021/12/28 03:55:22;;;;;;;365.67;74.32;;;6.20;99.90;;;;;;5094795;28;20077;-86
2021/12/28 03:57:49;;;;;;;353.02;74.03;;;6.30;99.90;;;;;;5077514;28;20140;-88
2021/12/28 04:00:15;;;;;;;336.88;71.18;;;6.20;99.90;;;;;;5094959;28;20055;-90
2021/12/28 04:02:41;;;;;;;379.80;73.45;;;6.20;99.90;;;;;;5094013;28;20044;-88
2021/12/28 04:05:07;;;;;;;314.70;67.60;;;6.30;99.90;;;;;;5094859;28;20647;-87
2021/12/28 04:07:33;;;;;;;332.67;70.53;;;6.20;99.90;;;;;;5076984;28;20059;-87
2021/12/28 04:10:02;;;;;;;308.20;69.40;;;6.30;99.90;;;;;;5111243;28;20035;-87
2021/12/28 04:12:27;;;;;;;276.30;66.53;;;6.40;99.90;;;;;;5094872;28;20059;-86
2021/12/28 04:14:53;;;;;;;404.98;75.63;;;6.50;99.90;;;;;;5112803;28;20048;-88
2021/12/28 04:17:19;;;;;;;751.92;92.28;;;6.50;99.90;;;;;;5112281;28;20485;-88
2021/12/28 04:19:45;;;;;;;579.83;86.78;;;6.30;99.90;;;;;;5112251;28;20052;-89
2021/12/28 04:22:11;;;;;;;460.70;79.43;;;6.40;99.90;;;;;;5112766;28;20051;-88
2021/12/28 04:24:36;;;;;;;534.78;81.95;;;6.40;99.90;;;;;;5094058;28;20108;-89
2021/12/28 04:27:02;;;;;;;419.75;74.10;;;6.40;99.90;;;;;;5111235;28;20055;-88
2021/12/28 04:29:28;;;;;;;509.80;78.65;;;6.30;99.90;;;;;;5112190;28;20112;-85
2021/12/28 04:31:54;;;;;;;811.40;94.18;;;7.00;99.90;;;;;;5111181;28;20047;-88
2021/12/28 04:34:19;;;;;;;553.67;79.53;;;6.20;99.90;;;;;;5112297;28;20051;-88
2021/12/28 04:36:47;;;;;;;795.63;89.95;;;6.10;99.90;;;;;;5093525;28;20047;-89
2021/12/28 04:39:12;;;;;;;910.35;96.75;;;6.30;99.90;;;;;;5112078;28;20112;-89
2021/12/28 04:41:38;;;;;;;784.67;90.65;;;6.00;99.90;;;;;;5110067;28;20051;-88
2021/12/28 04:44:04;;;;;;;749.63;85.65;;;5.90;99.90;;;;;;5110886;28;20142;-88
2021/12/28 04:46:30;;;;;;;615.50;81.15;;;5.90;99.90;;;;;;5111691;28;20039;-85
2021/12/28 04:48:56;;;;;;;593.97;83.35;;;5.80;99.90;;;;;;5110707;28;20058;-89
2021/12/28 04:51:23;;;;;;;584.90;78.60;;;5.90;99.90;;;;;;5077078;28;20043;-88
2021/12/28 04:53:49;;;;;;;594.47;76.57;;;5.80;99.90;;;;;;5109900;28;20054;-87
2021/12/28 04:56:15;;;;;;;539.33;73.28;;;5.80;99.90;;;;;;5110623;28;20052;-88
2021/12/28 04:58:41;;;;;;;689.25;77.65;;;5.80;99.90;;;;;;5093312;28;20040;-88
2021/12/28 05:01:07;;;;;;;524.28;69.82;;;5.90;99.90;;;;;;5110855;28;20069;-88
2021/12/28 05:03:32;;;;;;;371.63;61.50;;;5.70;99.90;;;;;;5109999;28;20047;-85
2021/12/28 05:05:58;;;;;;;393.55;64.35;;;5.70;99.90;;;;;;5110330;28;20047;-89
2021/12/28 05:08:23;;;;;;;398.67;65.75;;;6.10;99.90;;;;;;5093570;28;20052;-86
2021/12/28 05:10:50;;;;;;;380.33;61.90;;;5.90;99.90;;;;;;5109879;28;20123;-87
2021/12/28 05:13:16;;;;;;;366.63;59.95;;;6.00;99.90;;;;;;5093625;28;20123;-89
2021/12/28 05:15:43;;;;;;;322.30;58.17;;;5.70;99.90;;;;;;5092825;28;20436;-88
2021/12/28 05:18:09;;;;;;;298.02;54.22;;;5.70;99.90;;;;;;5110591;28;20051;-86
2021/12/28 05:20:35;;;;;;;300.33;56.20;;;5.80;99.90;;;;;;5110068;28;20446;-84
2021/12/28 05:23:00;;;;;;;301.45;55.38;;;5.60;99.90;;;;;;5110268;28;20052;-87
2021/12/28 05:25:26;;;;;;;247.52;53.65;;;6.20;99.90;;;;;;5110582;28;20052;-88
2021/12/28 05:27:52;;;;;;;198.98;47.08;;;5.60;99.90;;;;;;5092651;28;20048;-88
2021/12/28 05:30:18;;;;;;;225.40;51.47;;;5.70;99.90;;;;;;5127585;28;20051;-89
2021/12/28 05:32:43;;;;;;;240.35;52.63;;;5.70;99.90;;;;;;5109604;28;20054;-88
2021/12/28 05:35:09;;;;;;;237.75;52.38;;;5.80;99.90;;;;;;5110408;28;20760;-89
2021/12/28 05:37:35;;;;;;;235.90;49.80;;;5.70;99.90;;;;;;5093376;28;20081;-88
2021/12/28 05:40:01;;;;;;;207.45;48.90;;;6.80;99.90;;;;;;5092710;28;20103;-89
2021/12/28 05:42:26;;;;;;;240.35;52.00;;;5.60;99.90;;;;;;5093532;28;20129;-89
2021/12/28 05:44:52;;;;;;;193.70;46.58;;;5.60;99.90;;;;;;5093598;28;20388;-89
2021/12/28 05:47:19;;;;;;;266.48;51.97;;;5.70;99.90;;;;;;5111422;28;20055;-87
2021/12/28 05:49:45;;;;;;;194.32;45.30;;;5.60;99.90;;;;;;5093416;28;20059;-87
2021/12/28 05:52:11;;;;;;;217.45;48.95;;;5.70;99.90;;;;;;5093909;28;20055;-89
2021/12/28 05:54:37;;;;;;;190.90;45.08;;;5.60;99.90;;;;;;5110255;28;20092;-88
2021/12/28 05:57:02;;;;;;;198.85;47.00;;;5.60;99.90;;;;;;5112389;28;20058;-88
2021/12/28 05:59:28;;;;;;;223.13;49.00;;;5.60;99.90;;;;;;5131225;27;20046;-89
2021/12/28 06:01:54;;;;;;;187.93;44.75;;;6.20;99.90;;;;;;5113645;28;20057;-88
2021/12/28 06:04:19;;;;;;;208.20;48.63;;;5.60;99.90;;;;;;5113743;28;20040;-88
2021/12/28 06:06:45;;;;;;;174.85;46.67;;;5.60;99.90;;;;;;5096425;28;20052;-88
2021/12/28 06:09:11;;;;;;;178.25;46.55;;;5.60;99.90;;;;;;5115156;28;20051;-87
2021/12/28 06:11:36;;;;;;;190.00;47.58;;;5.60;99.90;;;;;;5114029;28;20047;-90
2021/12/28 06:14:02;;;;;;;196.80;48.08;;;5.60;99.90;;;;;;5113136;28;20126;-89
2021/12/28 06:16:27;;;;;;;194.27;46.95;;;5.60;99.90;;;;;;5113883;28;20051;-89
2021/12/28 06:18:53;;;;;;;177.45;47.28;;;6.10;99.90;;;;;;5112962;28;20048;-88
2021/12/28 06:21:19;;;;;;;192.13;47.58;;;5.60;99.90;;;;;;5113774;28;20192;-89
2021/12/28 06:23:44;;;;;;;181.40;45.53;;;5.70;99.90;;;;;;5112925;28;20040;-85
2021/12/28 06:26:10;;;;;;;199.10;47.15;;;6.40;99.90;;;;;;5113440;28;20051;-88
2021/12/28 06:28:36;;;;;;;245.88;49.60;;;5.70;99.90;;;;;;5113542;28;20134;-87
2021/12/28 06:31:01;;;;;;;217.68;45.33;;;5.70;99.90;;;;;;5096027;28;20048;-86
2021/12/28 06:33:27;;;;;;;272.45;53.33;;;5.70;99.90;;;;;;5096491;28;20051;-89
2021/12/28 06:35:54;;;;;;;210.40;48.45;;;5.60;99.90;;;;;;5095861;28;20108;-86
2021/12/28 06:38:20;;;;;;;223.52;49.60;;;5.70;99.90;;;;;;5096481;28;20071;-88
2021/12/28 06:40:46;;;;;;;182.35;44.50;;;5.70;99.90;;;;;;5095927;27;20063;-86
2021/12/28 06:43:12;;;;;;;192.40;47.05;;;5.60;99.90;;;;;;5097518;28;20055;-86
2021/12/28 06:45:37;;;;;;;228.73;49.50;;;5.70;99.90;;;;;;5143249;27;20039;-86
2021/12/28 06:48:03;;;;;;;203.15;47.33;;;5.70;99.90;;;;;;5111956;28;20043;-88
2021/12/28 06:50:29;;;;;;;179.60;46.38;;;5.70;99.90;;;;;;5079464;28;20052;-87
2021/12/28 06:52:55;;;;;;;151.32;43.75;;;5.60;99.90;;;;;;5112265;28;20043;-89
2021/12/28 06:55:20;;;;;;;172.95;46.85;;;5.70;99.90;;;;;;5112622;28;20058;-89
2021/12/28 06:57:46;;;;;;;154.50;44.25;;;5.80;99.90;;;;;;5113859;28;20051;-88
2021/12/28 07:00:14;;;;;;;154.25;42.67;;;5.80;99.90;;;;;;5112146;28;20552;-89
2021/12/28 07:02:40;;;;;;;170.65;45.92;;;5.80;99.90;;;;;;5078821;28;20506;-89
2021/12/28 07:05:06;;;;;;;152.35;45.25;;;5.80;99.90;;;;;;5112085;28;20043;-88
2021/12/28 07:07:32;;;;;;;126.50;42.80;;;5.80;99.90;;;;;;5095482;28;20181;-87
2021/12/28 07:09:57;;;;;;;152.95;45.63;;;5.90;99.90;;;;;;5078413;28;20134;-87
2021/12/28 07:12:23;;;;;;;161.20;46.50;;;5.80;99.90;;;;;;5112739;28;20123;-89
2021/12/28 07:14:49;;;;;;;159.07;45.55;;;5.80;99.90;;;;;;5112685;28;20197;-86
2021/12/28 07:17:14;;;;;;;147.52;45.63;;;5.40;99.90;;;;;;5112281;28;20039;-88
2021/12/28 07:19:40;;;;;;;123.03;40.60;;;5.80;99.90;;;;;;5095764;28;20516;-87
2021/12/28 07:22:06;;;;;;;132.02;40.35;;;5.90;99.90;;;;;;5095141;28;20421;-88
2021/12/28 07:24:32;;;;;;;120.38;41.72;;;5.80;99.90;;;;;;5111733;28;20136;-89
2021/12/28 07:26:58;;;;;;;113.82;40.60;;;5.90;99.90;;;;;;5111701;28;20120;-87
2021/12/28 07:29:23;;;;;;;110.03;39.78;;;5.90;99.90;;;;;;5111981;28;20100;-87
2021/12/28 07:31:49;;;;;;;100.28;38.72;;;5.80;99.90;;;;;;5112011;28;20051;-88
2021/12/28 07:34:15;;;;;;;96.90;37.25;;;5.90;99.90;;;;;;5112737;28;20043;-89
2021/12/28 07:36:40;;;;;;;107.65;38.00;;;6.00;99.90;;;;;;5112392;28;20051;-88
2021/12/28 07:39:06;;;;;;;87.70;36.00;;;5.90;99.90;;;;;;5094284;28;20583;-89
2021/12/28 07:41:32;;;;;;;86.45;35.78;;;5.80;99.90;;;;;;5094575;28;20059;-89
2021/12/28 07:43:58;;;;;;;75.72;33.47;;;6.00;99.90;;;;;;5094747;28;20066;-87
2021/12/28 07:46:24;;;;;;;73.53;31.23;;;6.00;99.90;;;;;;5095056;28;20055;-89
2021/12/28 07:48:49;;;;;;;74.70;30.88;;;6.00;99.90;;;;;;5095226;28;20467;-88
2021/12/28 07:51:15;;;;;;;73.38;30.25;;;5.80;99.90;;;;;;5111396;28;20070;-89
2021/12/28 07:53:41;;;;;;;68.35;30.90;;;6.60;99.90;;;;;;5111813;28;20134;-89
2021/12/28 07:56:06;;;;;;;72.05;30.60;;;5.90;99.90;;;;;;5111271;28;20486;-90
2021/12/28 07:58:32;;;;;;;61.95;27.80;;;5.80;99.90;;;;;;5111755;28;20540;-90
2021/12/28 08:00:58;;;;;;;67.53;28.55;;;5.80;99.90;;;;;;5094498;28;20052;-84
2021/12/28 08:03:24;;;;;;;64.93;28.10;;;5.80;99.90;;;;;;5111887;28;20065;-87
2021/12/28 08:05:50;;;;;;;60.03;28.00;;;5.80;99.90;;;;;;5111671;28;20052;-88
2021/12/28 08:08:16;;;;;;;58.88;25.92;;;5.80;99.90;;;;;;5110890;28;20105;-87
2021/12/28 08:10:41;;;;;;;55.95;25.15;;;5.80;99.90;;;;;;5094421;28;20051;-88
2021/12/28 08:13:07;;;;;;;63.47;26.48;;;5.80;99.90;;;;;;5110406;28;20063;-89
2021/12/28 08:15:33;;;;;;;58.13;27.27;;;5.80;99.90;;;;;;5111317;28;20403;-88
2021/12/28 08:17:58;;;;;;;58.28;25.85;;;5.90;99.90;;;;;;5094312;28;20047;-84
2021/12/28 08:20:24;;;;;;;65.63;26.70;;;5.80;99.90;;;;;;5093742;28;20143;-89
2021/12/28 08:22:50;;;;;;;65.75;24.67;;;5.80;99.90;;;;;;5111652;28;20468;-91
2021/12/28 08:25:18;;;;;;;63.58;24.75;;;5.90;99.90;;;;;;5110626;28;20475;-88
2021/12/28 08:27:43;;;;;;;55.00;24.45;;;5.90;99.90;;;;;;5111005;28;20055;-88
2021/12/28 08:30:10;;;;;;;62.33;25.67;;;5.90;99.90;;;;;;5110788;28;20138;-86
2021/12/28 08:32:36;;;;;;;64.05;23.80;;;5.90;99.90;;;;;;5111088;28;20047;-86
2021/12/28 08:35:02;;;;;;;60.00;24.63;;;5.90;99.90;;;;;;5077252;28;20063;-83
2021/12/28 08:37:28;;;;;;;53.42;23.38;;;5.90;99.90;;;;;;5093763;28;20502;-88
2021/12/28 08:39:54;;;;;;;50.85;22.17;;;6.00;99.90;;;;;;5110768;28;20048;-88
2021/12/28 08:42:21;;;;;;;52.05;23.10;;;5.90;99.90;;;;;;5076700;28;20050;-91
2021/12/28 08:44:47;;;;;;;57.05;22.80;;;6.00;99.90;;;;;;5111212;28;20051;-88
2021/12/28 08:47:12;;;;;;;51.90;21.80;;;6.00;99.90;;;;;;5076665;28;20127;-89
2021/12/28 08:49:38;;;;;;;48.22;23.02;;;6.00;99.90;;;;;;5110684;28;20036;-88
2021/12/28 08:52:04;;;;;;;49.58;19.75;;;5.90;99.90;;;;;;5110315;28;20075;-84
2021/12/28 08:54:30;;;;;;;49.80;20.33;;;6.00;99.90;;;;;;5110363;28;20115;-88
2021/12/28 08:56:56;;;;;;;47.95;20.60;;;5.90;99.90;;;;;;5094080;28;20054;-87
2021/12/28 08:59:22;;;;;;;50.85;20.10;;;5.90;99.90;;;;;;5110064;28;20051;-87
2021/12/28 09:01:48;;;;;;;52.15;21.83;;;5.90;99.90;;;;;;5093656;28;20056;-87
2021/12/28 09:04:14;;;;;;;47.47;20.42;;;6.00;99.90;;;;;;5093144;28;20400;-85
2021/12/28 09:06:40;;;;;;;46.28;20.80;;;6.00;99.90;;;;;;5117944;27;20052;-86
2021/12/28 09:09:06;;;;;;;47.20;20.65;;;6.10;99.90;;;;;;5109456;28;20039;-83
2021/12/28 09:11:32;;;;;;;43.55;20.48;;;6.50;99.90;;;;;;5110473;28;20061;-86
2021/12/28 09:13:57;;;;;;;40.65;18.10;;;7.80;99.90;;;;;;5109691;28;20069;-84
2021/12/28 09:16:23;;;;;;;40.38;16.15;;;7.00;99.90;;;;;;5109645;28;20055;-84
2021/12/28 09:18:49;;;;;;;35.97;16.38;;;6.80;99.90;;;;;;5110131;28;20044;-85
2021/12/28 09:21:15;;;;;;;41.50;16.08;;;6.80;99.90;;;;;;5075861;28;20097;-86
2021/12/28 09:23:40;;;;;;;37.85;16.45;;;6.70;99.90;;;;;;5110250;28;20108;-85
2021/12/28 09:26:06;;;;;;;34.83;16.10;;;6.60;99.90;;;;;;5110474;28;20689;-88
2021/12/28 09:28:32;;;;;;;37.63;15.57;;;6.60;99.90;;;;;;5109404;28;20035;-85
2021/12/28 09:30:57;;;;;;;29.90;16.08;;;6.60;99.90;;;;;;5094683;28;20049;-88
2021/12/28 09:33:24;;;;;;;40.85;16.42;;;7.20;99.90;;;;;;5079509;28;20494;-85
2021/12/28 09:35:54;;;;;;;36.78;15.63;;;6.60;99.90;;;;;;5115495;28;20051;-86
2021/12/28 09:38:20;;;;;;;37.85;16.08;;;6.50;99.90;;;;;;5113105;28;20654;-86
2021/12/28 09:40:46;;;;;;;31.50;13.52;;;6.60;99.90;;;;;;5097106;28;20089;-86
2021/12/28 09:43:12;;;;;;;40.40;14.43;;;6.80;99.90;;;;;;5096892;28;20158;-86
2021/12/28 09:45:38;;;;;;;35.05;14.75;;;6.70;99.90;;;;;;5097437;28;20134;-86
2021/12/28 09:48:04;;;;;;;35.30;14.50;;;6.80;99.90;;;;;;5097161;28;20096;-86
2021/12/28 09:50:30;;;;;;;38.80;15.05;;;6.80;99.90;;;;;;5096698;28;20487;-88
2021/12/28 09:52:55;;;;;;;33.50;14.52;;;7.00;99.90;;;;;;5116317;28;20044;-88
2021/12/28 09:55:23;;;;;;;34.97;14.23;;;6.80;99.90;;;;;;5130871;28;20023;-87
2021/12/28 09:57:49;;;;;;;37.85;13.50;;;7.60;99.90;;;;;;5109855;28;20377;-87
2021/12/28 10:00:15;;;;;;;34.45;13.50;;;6.90;99.90;;;;;;5113828;28;20051;-88
2021/12/28 10:02:44;;;;;;;34.08;12.75;;;6.90;99.90;;;;;;5097464;28;20087;-89
2021/12/28 10:05:31;;;;;;;40.90;14.30;;;6.50;99.90;;;;;;5096709;28;20078;-88
2021/12/28 10:07:58;;;;;;;27.77;12.23;;;7.00;99.90;;;;;;5113572;28;20087;-89
2021/12/28 10:10:29;;;;;;;24.33;11.25;;;7.10;99.90;;;;;;5097323;28;20126;-87
2021/12/28 10:13:02;;;;;;;29.63;10.98;;;7.10;99.90;;;;;;5080876;28;20052;-91
2021/12/28 10:15:30;;;;;;;24.60;10.50;;;7.60;99.90;;;;;;5096977;28;20836;-89
2021/12/28 10:17:57;;;;;;;32.28;11.60;;;7.10;99.90;;;;;;5115500;28;20122;-91
2021/12/28 10:20:28;;;;;;;24.67;10.45;;;7.20;99.90;;;;;;5114963;28;20126;-92
2021/12/28 10:22:59;;;;;;;32.42;10.30;;;7.20;99.90;;;;;;5114706;28;20047;-87
2021/12/28 10:25:45;;;;;;;33.72;10.38;;;7.20;99.90;;;;;;5097147;28;20090;-89
2021/12/28 10:28:13;;;;;;;21.75;9.50;;;7.20;99.90;;;;;;5096880;28;20116;-89
2021/12/28 10:30:43;;;;;;;25.83;10.05;;;7.30;99.90;;;;;;5095901;28;20052;-88
2021/12/28 10:33:15;;;;;;;28.48;10.90;;;7.30;99.90;;;;;;5096783;28;20083;-87
2021/12/28 10:35:57;;;;;;;31.95;11.38;;;7.30;99.90;;;;;;5095446;28;20050;-88
2021/12/28 10:38:28;;;;;;;25.10;9.95;;;7.30;99.90;;;;;;5113079;28;20467;-87
2021/12/28 10:40:56;;;;;;;29.00;10.52;;;7.30;99.90;;;;;;5095965;28;20468;-85
2021/12/28 10:43:23;;;;;;;29.38;11.13;;;7.30;99.90;;;;;;5112360;28;20052;-86
2021/12/28 10:46:10;;;;;;;30.30;10.65;;;7.30;99.90;;;;;;5112165;28;20058;-87
2021/12/28 10:48:42;;;;;;;31.60;10.75;;;7.40;99.90;;;;;;5096828;28;20091;-85
2021/12/28 10:51:18;;;;;;;30.65;11.40;;;7.40;99.90;;;;;;5129501;28;20130;-86
2021/12/28 10:53:55;;;;;;;20.65;10.52;;;7.40;99.90;;;;;;5078760;28;20043;-86
2021/12/28 10:56:21;;;;;;;32.25;12.38;;;7.60;99.90;;;;;;5111869;28;20048;-82
2021/12/28 10:58:47;;;;;;;31.80;11.50;;;7.40;99.90;;;;;;5094061;28;20051;-85
2021/12/28 11:01:14;;;;;;;32.55;12.00;;;7.40;99.90;;;;;;5078294;28;20086;-84
2021/12/28 11:03:45;;;;;;;28.58;11.38;;;7.90;99.90;;;;;;5111624;28;20059;-90
2021/12/28 11:06:23;;;;;;;33.03;12.40;;;7.40;99.90;;;;;;5112298;28;20094;-88
2021/12/28 11:08:54;;;;;;;30.42;12.23;;;7.40;99.90;;;;;;5062833;28;20058;-86
2021/12/28 11:11:21;;;;;;;34.83;13.55;;;7.40;99.90;;;;;;5111826;28;20047;-88
2021/12/28 11:13:47;;;;;;;36.53;12.75;;;7.30;99.90;;;;;;5094336;28;20391;-89
2021/12/28 11:16:13;;;;;;;34.92;13.48;;;7.30;99.90;;;;;;5077855;28;20044;-89
2021/12/28 11:18:46;;;;;;;33.30;13.27;;;7.30;99.90;;;;;;5077626;28;20059;-86
2021/12/28 11:21:50;;;;;;;35.08;14.50;;;7.40;99.90;;;;;;5078144;28;20091;-85
2021/12/28 11:24:16;;;;;;;36.28;15.15;;;7.40;99.90;;;;;;5085004;28;20761;-85
2021/12/28 11:26:45;;;;;;;40.80;15.57;;;7.40;99.90;;;;;;5110804;28;20054;-85
2021/12/28 11:29:13;;;;;;;39.70;15.93;;;7.40;99.90;;;;;;5112757;28;20095;-85
2021/12/28 11:31:40;;;;;;;38.15;14.73;;;7.40;99.90;;;;;;5093725;28;20495;-88
2021/12/28 11:34:07;;;;;;;41.60;16.75;;;7.50;99.90;;;;;;5111691;28;20111;-87
2021/12/28 11:36:37;;;;;;;33.65;14.60;;;7.50;99.90;;;;;;5093560;28;20048;-87
2021/12/28 11:39:09;;;;;;;40.05;16.73;;;7.50;99.90;;;;;;5033339;28;1274999;-88
2021/12/28 11:41:34;;;;;;;43.92;16.33;;;7.50;99.90;;;;;;5095204;28;20051;-87
2021/12/28 11:44:01;;;;;;;32.20;15.20;;;7.50;99.90;;;;;;5094052;28;20059;-86
2021/12/28 11:46:27;;;;;;;40.83;16.40;;;7.60;99.90;;;;;;5108295;28;20128;-83
2021/12/28 11:48:52;;;;;;;36.40;15.48;;;7.50;99.90;;;;;;5111878;28;20082;-85
2021/12/28 11:51:20;;;;;;;40.00;15.68;;;7.60;99.90;;;;;;5111120;28;20075;-85
2021/12/28 11:53:46;;;;;;;33.92;15.40;;;7.60;99.90;;;;;;5108323;28;20043;-86
2021/12/28 11:56:13;;;;;;;46.85;16.23;;;7.60;99.90;;;;;;5094683;28;20107;-84
2021/12/28 11:58:58;;;;;;;38.10;16.48;;;7.70;99.90;;;;;;5112102;28;20076;-85
2021/12/28 12:01:45;;;;;;;39.10;18.25;;;7.70;99.90;;;;;;5111634;28;20048;-85
2021/12/28 12:04:32;;;;;;;36.83;16.65;;;7.60;99.90;;;;;;5111508;28;20047;-86
2021/12/28 12:07:14;;;;;;;40.85;16.10;;;7.70;99.90;;;;;;5112777;28;20210;-87
2021/12/28 12:09:49;;;;;;;31.00;16.17;;;7.70;99.90;;;;;;5094824;28;20048;-86
2021/12/28 12:12:19;;;;;;;35.00;16.83;;;7.70;99.90;;;;;;5112611;28;20047;-88
2021/12/28 12:14:56;;;;;;;38.38;18.60;;;7.70;99.90;;;;;;5093824;28;20087;-87
2021/12/28 12:17:31;;;;;;;36.30;17.55;;;7.70;99.90;;;;;;5113294;28;20047;-87
2021/12/28 12:19:57;;;;;;;38.53;18.63;;;7.60;99.90;;;;;;5112753;28;20083;-87
2021/12/28 12:22:32;;;;;;;38.22;19.35;;;7.70;99.90;;;;;;5111410;28;20051;-86
2021/12/28 12:25:06;;;;;;;43.40;20.02;;;7.70;99.90;;;;;;5111989;28;20059;-87
2021/12/28 12:27:46;;;;;;;38.30;18.83;;;7.70;99.90;;;;;;5112779;28;20043;-86
2021/12/28 12:30:18;;;;;;;43.35;19.77;;;7.70;99.90;;;;;;5111159;28;20043;-87
2021/12/28 12:33:02;;;;;;;38.70;19.40;;;7.80;99.90;;;;;;5110435;28;20040;-83
2021/12/28 12:35:41;;;;;;;40.20;21.10;;;7.80;99.90;;;;;;5111832;28;20083;-86